Time;durP1;ratioP1;P1;durP2;ratioP2;P2;SDS_P1;SDS_P2;PMS_P1;PMS_P2;Temp;Humidity;BMP_temperature;BMP_pressure;BME280_temperature;BME280_humidity;BME280_pressure;Samples;Min_cycle;Max_cycle;Signal;HPM_P1;HPM_P2
2022/03/30 00:00:06;;;;;;;;;53.00;40.50;;;;;13.58;69.56;100260.63;5067437;28;45357;-68
2022/03/30 00:02:31;;;;;;;;;53.50;43.00;;;;;13.58;69.72;100257.88;5077677;28;45341;-68
2022/03/30 00:04:57;;;;;;;;;48.75;40.25;;;;;13.60;68.13;100258.53;5070793;28;45400;-68
2022/03/30 00:07:22;;;;;;;;;50.50;38.25;;;;;13.59;68.17;100256.81;5075916;28;46240;-68
2022/03/30 00:09:48;;;;;;;;;47.25;39.00;;;;;13.55;67.89;100237.25;5065588;27;45368;-69
2022/03/30 00:12:13;;;;;;;;;51.75;40.50;;;;;13.51;68.87;100240.53;5071938;28;45518;-68
2022/03/30 00:14:39;;;;;;;;;55.75;42.75;;;;;13.51;69.76;100248.72;5075953;28;45302;-68
2022/03/30 00:17:05;;;;;;;;;50.75;40.00;;;;;13.47;69.30;100250.09;5072873;27;45723;-68
2022/03/30 00:19:31;;;;;;;;;51.00;40.50;;;;;13.47;68.41;100252.81;5065493;28;45293;-68
2022/03/30 00:21:57;;;;;;;;;58.75;43.00;;;;;13.41;68.74;100248.94;5077839;28;45327;-68
2022/03/30 00:24:23;;;;;;;;;55.00;43.75;;;;;13.36;70.34;100245.91;5065307;27;45312;-68
2022/03/30 00:26:49;;;;;;;;;55.75;44.50;;;;;13.30;70.19;100234.81;5076774;28;45302;-68
2022/03/30 00:29:14;;;;;;;;;58.75;47.25;;;;;13.32;70.07;100249.13;5091393;27;45498;-68
2022/03/30 00:31:40;;;;;;;;;55.00;44.00;;;;;13.28;70.22;100240.47;5066979;28;45310;-68
2022/03/30 00:34:05;;;;;;;;;52.00;42.50;;;;;13.27;69.67;100235.19;5063551;28;45325;-67
2022/03/30 00:36:30;;;;;;;;;54.50;46.00;;;;;13.25;69.55;100230.75;5072517;28;45341;-68
2022/03/30 00:38:56;;;;;;;;;59.50;48.75;;;;;13.22;69.50;100227.56;5065807;27;45396;-67
2022/03/30 00:41:21;;;;;;;;;55.75;44.25;;;;;13.24;69.05;100214.56;5074069;28;45286;-67
2022/03/30 00:43:47;;;;;;;;;56.50;45.50;;;;;13.20;69.06;100219.53;5077121;28;45437;-67
2022/03/30 00:46:12;;;;;;;;;61.00;48.75;;;;;13.20;70.02;100226.88;5072542;28;46507;-67
2022/03/30 00:48:40;;;;;;;;;59.50;45.00;;;;;13.19;70.11;100219.72;5076217;28;45286;-67
2022/03/30 00:51:06;;;;;;;;;66.25;50.00;;;;;13.16;70.32;100226.38;5070054;28;45371;-67
2022/03/30 00:53:31;;;;;;;;;60.50;47.50;;;;;13.06;71.28;100203.91;5075380;28;45585;-67
2022/03/30 00:55:58;;;;;;;;;62.50;47.25;;;;;13.06;71.47;100211.22;5070342;28;45322;-67
2022/03/30 00:58:25;;;;;;;;;60.00;48.25;;;;;13.13;71.14;100212.25;5074802;28;45459;-67
2022/03/30 01:00:51;;;;;;;;;61.25;47.00;;;;;13.15;69.69;100208.28;5069658;28;45301;-67
2022/03/30 01:03:16;;;;;;;;;59.50;47.25;;;;;13.14;69.78;100209.34;5073573;28;45599;-67
2022/03/30 01:05:42;;;;;;;;;61.75;50.00;;;;;13.19;69.74;100206.94;5071550;28;47985;-67
2022/03/30 01:08:07;;;;;;;;;62.50;48.00;;;;;13.16;69.46;100198.25;5071508;28;45410;-67
2022/03/30 01:10:33;;;;;;;;;60.75;49.50;;;;;13.17;69.68;100198.06;5066735;28;45444;-67
2022/03/30 01:13:00;;;;;;;;;57.75;45.50;;;;;13.15;70.49;100197.38;5079074;28;45330;-67
2022/03/30 01:15:26;;;;;;;;;58.75;46.00;;;;;13.12;70.39;100192.28;5065569;28;46368;-67
2022/03/30 01:17:51;;;;;;;;;70.25;51.00;;;;;13.06;71.34;100175.78;5068732;28;45639;-68
2022/03/30 01:20:18;;;;;;;;;65.50;50.00;;;;;13.09;71.00;100178.13;5064577;28;45896;-67
2022/03/30 01:22:43;;;;;;;;;59.75;48.75;;;;;13.08;70.86;100182.72;5075768;27;45379;-67
2022/03/30 01:25:09;;;;;;;;;64.75;49.25;;;;;13.11;70.37;100176.09;5063200;28;45515;-67
2022/03/30 01:27:35;;;;;;;;;58.00;47.25;;;;;13.11;70.15;100171.47;5068838;27;45501;-67
2022/03/30 01:33:02;;;;;;;;;62.00;50.25;;;;;13.10;69.85;100167.03;5075615;28;45601;-68
2022/03/30 01:35:28;;;;;;;;;66.25;49.75;;;;;13.07;69.23;100164.69;5063282;28;47134;-68
2022/03/30 01:37:54;;;;;;;;;62.75;47.25;;;;;13.07;69.76;100159.25;5076615;28;45379;-67
2022/03/30 01:40:20;;;;;;;;;64.50;48.00;;;;;12.98;69.56;100146.66;5067866;28;45749;-68
2022/03/30 01:42:46;;;;;;;;;63.00;49.50;;;;;12.96;69.68;100156.91;5079176;28;45489;-67
2022/03/30 01:45:12;;;;;;;;;61.25;49.00;;;;;12.95;69.85;100154.34;5076877;28;45592;-68
2022/03/30 01:47:40;;;;;;;;;65.25;50.75;;;;;12.84;70.68;100161.91;5079387;28;45904;-67
2022/03/30 01:50:08;;;;;;;;;62.25;49.00;;;;;12.82;70.95;100154.91;5071516;28;45230;-67
2022/03/30 01:52:33;;;;;;;;;64.25;49.00;;;;;12.82;70.88;100149.47;5081737;27;45959;-67
2022/03/30 01:54:58;;;;;;;;;67.00;49.75;;;;;12.85;71.20;100149.13;5068746;28;47257;-67
2022/03/30 01:57:24;;;;;;;;;66.50;51.25;;;;;12.74;72.46;100135.88;5079461;28;45444;-68
2022/03/30 01:59:49;;;;;;;;;69.50;52.00;;;;;12.73;73.35;100145.06;5069683;28;45332;-67
2022/03/30 02:02:15;;;;;;;;;63.00;49.25;;;;;12.71;72.55;100147.97;5076235;28;45420;-68
2022/03/30 02:04:41;;;;;;;;;66.50;50.25;;;;;12.71;73.03;100144.41;5073246;28;48753;-67
2022/03/30 02:07:09;;;;;;;;;64.00;49.25;;;;;12.77;72.77;100140.97;5074627;28;45430;-68
2022/03/30 02:09:34;;;;;;;;;64.75;51.75;;;;;12.83;71.84;100143.84;5070627;28;45331;-67
2022/03/30 02:12:00;;;;;;;;;65.75;49.00;;;;;12.82;72.33;100133.13;5077298;28;45313;-68
2022/03/30 02:14:25;;;;;;;;;64.00;48.75;;;;;12.78;72.79;100124.44;5080222;28;47368;-68
2022/03/30 02:16:51;;;;;;;;;61.00;49.25;;;;;12.75;72.76;100130.25;5072237;28;45494;-68
2022/03/30 02:19:16;;;;;;;;;59.50;48.50;;;;;12.70;72.68;100123.63;5069079;28;45227;-69
2022/03/30 02:21:42;;;;;;;;;65.75;50.00;;;;;12.64;73.58;100122.44;5071641;28;45368;-68
2022/03/30 02:24:08;;;;;;;;;59.50;47.75;;;;;12.62;73.36;100120.94;5067523;28;45532;-68
2022/03/30 02:26:33;;;;;;;;;65.50;49.50;;;;;12.54;73.61;100124.56;5071808;28;45748;-68
2022/03/30 02:28:59;;;;;;;;;64.50;49.25;;;;;12.54;73.22;100115.53;5092183;27;45629;-67
2022/03/30 02:31:24;;;;;;;;;58.75;46.50;;;;;12.55;73.11;100120.81;5069202;28;45792;-68
2022/03/30 02:33:50;;;;;;;;;66.25;49.00;;;;;12.57;72.99;100117.88;5070328;28;46935;-68
2022/03/30 02:36:16;;;;;;;;;69.25;50.00;;;;;12.58;72.69;100114.13;5083103;28;45481;-68
2022/03/30 02:38:43;;;;;;;;;62.25;47.75;;;;;12.49;73.21;100108.72;5081503;28;45454;-68
2022/03/30 02:41:10;;;;;;;;;64.00;46.75;;;;;12.42;72.95;100104.13;5071858;28;45388;-68
2022/03/30 02:43:36;;;;;;;;;69.50;52.25;;;;;12.40;73.36;100107.06;5081751;28;45397;-68
2022/03/30 02:46:02;;;;;;;;;63.75;52.00;;;;;12.32;74.16;100104.38;5069111;28;45223;-68
2022/03/30 02:48:32;;;;;;;;;60.50;47.75;;;;;12.25;74.34;100103.38;5066566;28;45330;-68
2022/03/30 02:51:05;;;;;;;;;62.25;49.00;;;;;12.27;73.72;100105.94;5072960;28;45305;-68
2022/03/30 02:53:30;;;;;;;;;66.00;50.25;;;;;12.31;73.32;100101.81;5072405;28;46644;-68
2022/03/30 02:55:57;;;;;;;;;65.75;49.50;;;;;12.32;73.23;100100.78;5071697;28;45337;-67
2022/03/30 02:58:23;;;;;;;;;63.75;49.75;;;;;12.33;72.77;100105.22;5071634;27;45393;-68
2022/03/30 03:00:49;;;;;;;;;66.25;51.25;;;;;12.29;73.55;100101.97;5065563;28;45279;-68
2022/03/30 03:03:14;;;;;;;;;42.25;27.75;;;;;12.26;74.11;100094.19;5070688;28;45489;-68
2022/03/30 03:05:41;;;;;;;;;66.50;49.00;;;;;12.27;73.79;100095.03;5072832;28;45397;-67
2022/03/30 03:08:09;;;;;;;;;73.75;51.25;;;;;12.24;74.42;100096.22;5073457;28;45240;-67
2022/03/30 03:10:36;;;;;;;;;69.50;50.75;;;;;12.30;73.77;100095.50;5068651;28;45694;-68
2022/03/30 03:13:06;;;;;;;;;70.75;50.25;;;;;12.30;74.06;100087.34;5079112;28;47979;-67
2022/03/30 03:15:33;;;;;;;;;69.00;50.75;;;;;12.37;73.94;100093.78;5072935;28;45411;-68
2022/03/30 03:17:59;;;;;;;;;64.00;49.25;;;;;12.38;74.27;100097.38;5069460;27;45202;-68
2022/03/30 03:20:25;;;;;;;;;66.25;50.00;;;;;12.38;74.04;100083.75;5073063;28;45460;-67
2022/03/30 03:22:51;;;;;;;;;67.00;51.75;;;;;12.42;73.89;100090.53;5068152;28;45601;-67
2022/03/30 03:25:16;;;;;;;;;60.00;48.75;;;;;12.47;73.74;100094.44;5071286;28;46332;-67
2022/03/30 03:27:42;;;;;;;;;61.75;49.75;;;;;12.53;73.60;100086.56;5072374;27;45388;-67
2022/03/30 03:30:09;;;;;;;;;65.50;50.75;;;;;12.58;73.29;100086.88;5083409;27;45387;-67
2022/03/30 03:32:34;;;;;;;;;64.75;51.00;;;;;12.59;73.63;100089.44;5078995;27;45647;-67
2022/03/30 03:34:59;;;;;;;;;62.75;49.50;;;;;12.60;73.22;100090.28;5063515;28;45310;-67
2022/03/30 03:37:25;;;;;;;;;65.50;50.00;;;;;12.63;73.21;100089.94;5074122;28;45949;-67
2022/03/30 03:39:51;;;;;;;;;65.25;50.50;;;;;12.62;72.94;100083.66;5064212;28;45465;-67
2022/03/30 03:42:16;;;;;;;;;67.00;50.25;;;;;12.64;72.67;100076.13;5077032;28;45653;-67
2022/03/30 03:44:42;;;;;;;;;65.75;51.00;;;;;12.66;72.74;100073.22;5073807;28;45242;-67
2022/03/30 03:47:09;;;;;;;;;62.50;49.25;;;;;12.65;73.18;100069.66;5067437;28;45412;-67
2022/03/30 03:49:35;;;;;;;;;66.75;52.00;;;;;12.68;72.84;100079.34;5064329;28;45556;-67
2022/03/30 03:52:01;;;;;;;;;65.75;51.25;;;;;12.63;73.15;100065.41;5074552;28;47043;-67
2022/03/30 03:54:26;;;;;;;;;67.00;52.50;;;;;12.59;73.55;100074.97;5069485;28;44734;-67
2022/03/30 03:56:51;;;;;;;;;69.00;53.75;;;;;12.56;73.75;100073.47;5074545;28;45699;-67
2022/03/30 03:59:17;;;;;;;;;70.00;54.50;;;;;12.54;73.78;100070.06;5071642;28;45571;-67
2022/03/30 04:01:42;;;;;;;;;63.25;49.75;;;;;12.56;74.26;100065.28;5073386;28;46206;-67
2022/03/30 04:04:07;;;;;;;;;64.75;50.50;;;;;12.55;74.09;100060.00;5068798;28;45323;-67
2022/03/30 04:06:33;;;;;;;;;69.00;53.25;;;;;12.53;73.53;100057.44;5073014;28;45436;-67
2022/03/30 04:08:59;;;;;;;;;69.50;51.50;;;;;12.59;73.74;100058.59;5067724;28;45309;-67
2022/03/30 04:11:25;;;;;;;;;69.00;52.75;;;;;12.60;74.03;100058.44;5070581;28;46810;-67
2022/03/30 04:13:50;;;;;;;;;69.00;52.00;;;;;12.65;73.47;100056.03;5067701;28;45371;-69
2022/03/30 04:16:16;;;;;;;;;64.75;50.00;;;;;12.59;73.67;100055.88;5069862;28;45288;-67
2022/03/30 04:18:43;;;;;;;;;71.50;56.00;;;;;12.60;73.50;100052.13;5072459;28;45330;-67
2022/03/30 04:21:09;;;;;;;;;67.00;51.75;;;;;12.63;73.32;100049.06;5068553;28;45275;-67
2022/03/30 04:23:34;;;;;;;;;69.75;51.50;;;;;12.68;72.70;100054.81;5065405;28;45514;-67
2022/03/30 04:26:00;;;;;;;;;69.75;53.25;;;;;12.72;73.11;100053.41;5067397;28;45727;-67
2022/03/30 04:28:25;;;;;;;;;63.50;51.25;;;;;12.65;73.13;100050.56;5080706;27;45421;-67
2022/03/30 04:30:51;;;;;;;;;65.50;50.00;;;;;12.64;73.66;100058.94;5076431;27;45592;-67
2022/03/30 04:33:16;;;;;;;;;69.25;50.75;;;;;12.66;72.94;100051.41;5073620;28;45403;-67
2022/03/30 04:35:42;;;;;;;;;69.00;51.50;;;;;12.68;72.16;100049.38;5065085;28;45321;-67
2022/03/30 04:38:07;;;;;;;;;65.50;49.75;;;;;12.67;73.19;100053.97;5071072;28;45400;-67
2022/03/30 04:40:33;;;;;;;;;66.75;51.25;;;;;12.63;73.65;100047.19;5070756;28;46150;-67
2022/03/30 04:42:59;;;;;;;;;66.00;51.25;;;;;12.56;74.25;100039.91;5079900;28;45543;-68
2022/03/30 04:45:24;;;;;;;;;64.75;51.75;;;;;12.49;74.71;100040.59;5067781;28;45439;-67
2022/03/30 04:47:53;;;;;;;;;70.50;53.75;;;;;12.42;74.48;100041.47;5081905;28;45330;-67
2022/03/30 04:50:18;;;;;;;;;63.25;49.50;;;;;12.43;74.09;100035.00;5068428;28;45418;-67
2022/03/30 04:52:44;;;;;;;;;66.25;52.00;;;;;12.44;74.70;100029.41;5073508;28;45196;-67
2022/03/30 04:55:10;;;;;;;;;66.50;50.25;;;;;12.54;74.10;100033.78;5062964;28;45354;-67
2022/03/30 04:57:37;;;;;;;;;71.50;53.75;;;;;12.55;73.72;100027.31;5077263;28;45388;-67
2022/03/30 05:00:05;;;;;;;;;65.50;52.00;;;;;12.60;74.40;100036.63;5065462;27;45441;-68
2022/03/30 05:02:32;;;;;;;;;66.25;52.75;;;;;12.60;74.03;100027.63;5074888;28;45421;-67
2022/03/30 05:04:57;;;;;;;;;72.00;55.00;;;;;12.62;74.66;100028.28;5068864;27;45388;-67
2022/03/30 05:07:23;;;;;;;;;72.50;55.25;;;;;12.56;75.06;100029.84;5071500;28;45552;-67
2022/03/30 05:09:48;;;;;;;;;72.50;55.50;;;;;12.49;75.41;100029.69;5064498;28;45271;-66
2022/03/30 05:12:13;;;;;;;;;70.25;53.50;;;;;12.52;75.07;100025.78;5069570;28;45419;-66
2022/03/30 05:14:39;;;;;;;;;73.25;56.00;;;;;12.59;75.41;100028.63;5064610;28;45902;-67
2022/03/30 05:17:04;;;;;;;;;68.25;53.25;;;;;12.54;74.57;100022.88;5075501;28;45814;-67
2022/03/30 05:19:30;;;;;;;;;73.50;57.50;;;;;12.52;74.83;100023.06;5064372;28;47042;-67
2022/03/30 05:21:55;;;;;;;;;72.25;54.25;;;;;12.41;74.78;100015.28;5069206;28;46034;-67
2022/03/30 05:24:21;;;;;;;;;79.25;57.50;;;;;12.41;75.54;100028.91;5064807;28;45366;-66
2022/03/30 05:26:47;;;;;;;;;73.75;57.75;;;;;12.48;75.32;100030.75;5069300;28;45417;-68
2022/03/30 05:29:12;;;;;;;;;74.25;56.00;;;;;12.46;74.79;100019.16;5090895;27;47381;-67
2022/03/30 05:31:38;;;;;;;;;69.50;52.75;;;;;12.41;75.70;100027.03;5076700;28;45410;-68
2022/03/30 05:34:03;;;;;;;;;73.50;56.75;;;;;12.50;74.78;100033.28;5068416;28;45361;-68
2022/03/30 05:36:29;;;;;;;;;73.50;54.50;;;;;12.53;74.64;100030.19;5074419;28;45968;-68
2022/03/30 05:38:55;;;;;;;;;74.75;55.00;;;;;12.60;74.06;100033.91;5067821;28;45428;-68
2022/03/30 05:41:20;;;;;;;;;68.00;53.00;;;;;12.62;73.75;100031.00;5071120;28;45541;-68
2022/03/30 05:43:46;;;;;;;;;70.50;54.50;;;;;12.63;73.69;100030.00;5079388;28;45380;-68
2022/03/30 05:46:12;;;;;;;;;73.25;54.50;;;;;12.54;74.01;100015.56;5073598;28;45351;-68
2022/03/30 05:48:37;;;;;;;;;72.75;58.25;;;;;12.62;74.33;100026.41;5076421;28;47165;-68
2022/03/30 05:51:03;;;;;;;;;73.00;56.75;;;;;12.63;74.23;100027.25;5072732;28;45286;-68
2022/03/30 05:53:28;;;;;;;;;73.75;55.75;;;;;12.64;73.81;100032.50;5072122;28;45488;-68
2022/03/30 05:55:57;;;;;;;;;73.00;56.75;;;;;12.65;74.19;100041.53;5070162;28;45367;-67
2022/03/30 05:58:23;;;;;;;;;77.50;56.00;;;;;12.62;74.01;100033.75;5074072;28;47222;-67
2022/03/30 06:00:50;;;;;;;;;74.00;53.75;;;;;12.64;74.12;100037.16;5069914;28;45295;-67
2022/03/30 06:03:17;;;;;;;;;75.25;58.50;;;;;12.67;74.20;100040.34;5067882;27;45346;-68
2022/03/30 06:05:43;;;;;;;;;70.75;54.75;;;;;12.63;74.39;100046.34;5073166;28;48013;-66
2022/03/30 06:08:09;;;;;;;;;73.25;56.50;;;;;12.58;74.95;100043.28;5067530;28;45518;-68
2022/03/30 06:10:35;;;;;;;;;70.25;53.75;;;;;12.57;75.01;100047.03;5068713;28;45764;-67
2022/03/30 06:13:02;;;;;;;;;72.25;56.75;;;;;12.62;74.98;100047.38;5070671;27;45486;-68
2022/03/30 06:15:28;;;;;;;;;74.50;57.50;;;;;12.57;75.17;100044.31;5065486;28;45592;-67
2022/03/30 06:17:55;;;;;;;;;69.50;54.00;;;;;12.58;75.21;100051.47;5069074;28;46277;-67
2022/03/30 06:20:25;;;;;;;;;78.50;58.00;;;;;12.59;75.46;100050.44;5065826;28;45231;-67
2022/03/30 06:22:54;;;;;;;;;75.50;56.75;;;;;12.54;75.72;100053.72;5068412;28;45464;-67
2022/03/30 06:25:25;;;;;;;;;74.75;56.75;;;;;12.54;76.00;100050.13;5066517;28;45374;-67
2022/03/30 06:27:54;;;;;;;;;76.75;57.50;;;;;12.52;75.58;100050.31;5073149;27;46535;-67
2022/03/30 06:30:20;;;;;;;;;81.50;61.50;;;;;12.52;76.20;100049.44;5080159;27;45381;-66
2022/03/30 06:32:49;;;;;;;;;73.50;55.50;;;;;12.49;76.10;100048.78;5076691;28;45494;-67
2022/03/30 06:35:17;;;;;;;;;75.25;56.25;;;;;12.51;75.85;100058.66;5067941;28;45554;-67
2022/03/30 06:37:42;;;;;;;;;67.00;52.00;;;;;12.54;76.19;100052.84;5073504;28;47162;-68
2022/03/30 06:40:08;;;;;;;;;71.00;52.25;;;;;12.59;75.81;100050.44;5063345;28;45323;-67
2022/03/30 06:42:35;;;;;;;;;66.00;51.50;;;;;12.63;75.33;100057.25;5077833;27;45495;-68
2022/03/30 06:45:00;;;;;;;;;76.50;58.00;;;;;12.62;75.80;100058.25;5070981;28;45419;-69
2022/03/30 06:47:26;;;;;;;;;75.75;57.00;;;;;12.51;75.77;100045.88;5077832;28;45448;-69
2022/03/30 06:49:51;;;;;;;;;70.50;55.00;;;;;12.60;75.27;100054.84;5069896;28;45272;-68
2022/03/30 06:52:17;;;;;;;;;72.75;55.00;;;;;12.62;75.24;100061.84;5075331;28;45245;-68
2022/03/30 06:54:42;;;;;;;;;76.75;56.75;;;;;12.62;75.15;100055.53;5070058;27;45310;-67
2022/03/30 06:57:08;;;;;;;;;70.25;55.25;;;;;12.48;75.97;100059.88;5071885;28;47177;-68
2022/03/30 06:59:33;;;;;;;;;71.75;56.75;;;;;12.45;76.78;100066.50;5063804;28;45270;-68
2022/03/30 07:01:59;;;;;;;;;75.25;57.00;;;;;12.33;76.99;100072.53;5074700;28;45431;-68
2022/03/30 07:04:25;;;;;;;;;74.75;57.75;;;;;12.29;77.67;100072.03;5070629;28;45370;-68
2022/03/30 07:12:20;;;;;;;;;71.50;55.25;;;;;12.44;77.59;100066.69;5072555;28;45485;-67
2022/03/30 07:14:46;;;;;;;;;69.00;52.25;;;;;12.44;76.98;100070.25;5065231;28;45527;-67
2022/03/30 07:17:13;;;;;;;;;76.75;55.50;;;;;12.45;76.10;100061.06;5068988;28;45682;-68
2022/03/30 07:19:40;;;;;;;;;69.25;53.00;;;;;12.41;76.77;100067.91;5064278;28;45380;-67
2022/03/30 07:22:09;;;;;;;;;72.25;52.50;;;;;12.29;77.34;100057.56;5068911;28;45488;-67
2022/03/30 07:24:35;;;;;;;;;68.75;56.00;;;;;12.16;78.43;100060.84;5065174;28;45622;-67
2022/03/30 07:27:01;;;;;;;;;67.25;54.00;;;;;12.16;78.73;100057.25;5067340;28;45788;-67
2022/03/30 07:29:26;;;;;;;;;71.50;55.75;;;;;12.10;79.21;100058.81;5089691;27;45273;-67
2022/03/30 07:31:51;;;;;;;;;66.00;53.25;;;;;12.18;78.68;100061.53;5077760;28;45539;-67
2022/03/30 07:34:17;;;;;;;;;72.25;55.00;;;;;12.17;78.53;100059.81;5066706;28;45264;-66
2022/03/30 07:36:43;;;;;;;;;69.50;54.75;;;;;12.17;78.81;100057.09;5075102;28;46262;-67
2022/03/30 07:39:08;;;;;;;;;67.75;52.50;;;;;12.28;78.04;100053.13;5077342;28;45760;-67
2022/03/30 07:41:34;;;;;;;;;70.00;54.50;;;;;12.31;78.26;100058.22;5070545;28;45360;-67
2022/03/30 07:43:59;;;;;;;;;67.00;51.00;;;;;12.36;77.54;100062.13;5066083;28;45239;-67
2022/03/30 07:46:24;;;;;;;;;71.00;55.75;;;;;12.28;78.00;100064.00;5073598;28;46189;-68
2022/03/30 07:48:50;;;;;;;;;72.00;55.00;;;;;12.33;77.55;100059.75;5066699;27;45255;-67
2022/03/30 07:51:15;;;;;;;;;73.50;59.00;;;;;12.29;77.80;100060.28;5073235;28;45313;-66
2022/03/30 07:53:41;;;;;;;;;67.25;54.00;;;;;12.22;77.85;100054.69;5075124;28;45509;-68
2022/03/30 07:56:06;;;;;;;;;71.50;54.25;;;;;12.22;77.83;100059.28;5068045;28;46868;-67
2022/03/30 07:58:31;;;;;;;;;67.50;54.00;;;;;12.22;78.09;100057.41;5066124;28;45247;-66
2022/03/30 08:00:57;;;;;;;;;75.50;59.00;;;;;12.23;77.89;100050.09;5070265;28;45414;-67
2022/03/30 08:03:22;;;;;;;;;73.75;56.00;;;;;12.19;78.20;100052.31;5071167;27;45629;-67
2022/03/30 08:05:48;;;;;;;;;69.50;55.50;;;;;12.31;77.91;100056.34;5070981;28;46999;-67
2022/03/30 08:08:13;;;;;;;;;71.25;56.50;;;;;12.20;77.15;100054.00;5074846;28;45150;-68
2022/03/30 08:10:39;;;;;;;;;77.00;55.75;;;;;12.17;76.37;100050.78;5071957;28;45447;-67
2022/03/30 08:13:05;;;;;;;;;81.50;59.25;;;;;12.17;77.51;100059.81;5079146;28;45653;-67
2022/03/30 08:15:31;;;;;;;;;74.75;57.00;;;;;12.21;76.62;100061.16;5076655;28;45909;-67
2022/03/30 08:17:57;;;;;;;;;72.75;58.00;;;;;12.21;76.72;100058.44;5068163;28;45256;-67
2022/03/30 08:23:08;;;;;;;;;71.50;56.75;;;;;12.30;76.93;100062.81;5068176;28;45461;-68
2022/03/30 08:25:34;;;;;;;;;77.00;58.25;;;;;12.38;76.10;100059.22;5066160;28;46196;-68
2022/03/30 08:28:00;;;;;;;;;74.00;57.50;;;;;12.38;75.97;100060.06;5081168;27;45373;-68
2022/03/30 08:30:26;;;;;;;;;74.25;57.75;;;;;12.33;75.43;100045.28;5078366;27;45325;-68
2022/03/30 08:32:52;;;;;;;;;79.50;60.25;;;;;12.39;76.29;100061.78;5075776;28;45340;-68
2022/03/30 08:35:18;;;;;;;;;72.00;57.50;;;;;12.40;76.15;100057.19;5079708;28;47255;-68
2022/03/30 08:37:43;;;;;;;;;78.25;59.75;;;;;12.34;76.77;100058.75;5075895;28;45403;-68
2022/03/30 08:40:09;;;;;;;;;77.25;58.25;;;;;12.27;77.32;100055.00;5062978;28;45386;-70
2022/03/30 08:42:35;;;;;;;;;74.50;58.25;;;;;12.35;77.24;100056.84;5076807;28;45623;-68
2022/03/30 08:45:03;;;;;;;;;78.25;57.75;;;;;12.40;77.52;100058.03;5062764;28;45675;-67
2022/03/30 08:47:29;;;;;;;;;75.75;57.25;;;;;12.47;77.21;100058.16;5075370;28;45282;-67
2022/03/30 08:49:55;;;;;;;;;80.25;64.25;;;;;12.50;77.32;100057.78;5078599;28;45502;-68
2022/03/30 08:52:20;;;;;;;;;78.00;58.75;;;;;12.53;76.00;100049.28;5074567;28;45292;-67
2022/03/30 08:54:50;;;;;;;;;78.25;61.00;;;;;12.50;75.86;100044.16;5077866;28;46952;-67
2022/03/30 08:57:15;;;;;;;;;79.00;59.25;;;;;12.53;75.65;100045.69;5072122;28;45452;-67
2022/03/30 09:00:05;;;;;;;;;78.75;59.00;;;;;12.52;76.60;100050.31;5068101;28;45382;-70
2022/03/30 09:02:41;;;;;;;;;80.00;64.00;;;;;12.27;79.65;100049.53;5075242;28;45547;-67
2022/03/30 09:05:19;;;;;;;;;85.75;65.25;;;;;12.23;79.93;100052.81;5067276;28;45401;-67
2022/03/30 09:07:50;;;;;;;;;80.25;59.50;;;;;12.20;78.86;100029.50;5073537;28;45374;-67
2022/03/30 09:10:19;;;;;;;;;82.25;62.00;;;;;12.41;77.29;100046.13;5069204;28;45333;-69
2022/03/30 09:12:45;;;;;;;;;79.50;57.25;;;;;12.46;77.15;100043.69;5070817;28;45690;-69
2022/03/30 09:15:12;;;;;;;;;78.00;58.00;;;;;12.55;77.98;100043.66;5062563;28;45669;-69
2022/03/30 09:17:40;;;;;;;;;82.75;60.25;;;;;12.59;78.31;100047.72;5070163;28;45387;-68
2022/03/30 09:20:07;;;;;;;;;84.25;66.25;;;;;12.66;78.80;100052.28;5065642;28;45321;-67
2022/03/30 09:22:33;;;;;;;;;85.00;67.75;;;;;12.62;78.89;100056.41;5093016;27;45559;-67
2022/03/30 09:25:00;;;;;;;;;83.75;64.50;;;;;12.57;79.53;100047.03;5061032;28;47972;-69
2022/03/30 09:27:26;;;;;;;;;84.25;62.50;;;;;12.58;79.24;100052.31;5067524;27;45517;-69
2022/03/30 09:29:52;;;;;;;;;79.50;62.50;;;;;12.78;78.34;100056.28;5087077;27;45483;-67
2022/03/30 09:32:18;;;;;;;;;82.25;61.50;;;;;12.92;76.97;100057.41;5076804;28;45697;-67
2022/03/30 09:34:49;;;;;;;;;82.00;61.00;;;;;13.00;76.21;100057.38;5077843;28;47338;-69
2022/03/30 09:37:15;;;;;;;;;77.00;59.50;;;;;13.06;75.80;100062.09;5075328;28;45325;-69
2022/03/30 09:39:41;;;;;;;;;79.75;60.00;;;;;13.14;74.85;100056.59;5077699;28;45434;-69
2022/03/30 09:42:09;;;;;;;;;76.25;59.00;;;;;13.17;75.95;100058.97;5073984;28;45325;-69
2022/03/30 09:44:47;;;;;;;;;86.00;66.75;;;;;13.17;76.22;100058.97;5072857;28;46375;-69
2022/03/30 09:47:12;;;;;;;;;83.00;62.00;;;;;13.09;77.31;100064.44;5074457;28;45321;-68
2022/03/30 09:49:43;;;;;;;;;84.25;62.75;;;;;13.20;77.17;100060.47;5072152;28;45333;-68
2022/03/30 09:52:27;;;;;;;;;75.50;59.25;;;;;13.40;76.62;100053.50;5074092;28;45432;-68
2022/03/30 09:54:55;;;;;;;;;78.00;58.50;;;;;13.60;74.45;100051.09;5068460;27;46463;-69
2022/03/30 09:57:23;;;;;;;;;77.75;61.00;;;;;13.54;74.08;100049.94;5072872;28;45415;-68
2022/03/30 10:00:00;;;;;;;;;75.00;56.00;;;;;13.53;75.37;100050.13;5066123;28;45313;-68
2022/03/30 10:02:42;;;;;;;;;81.50;62.00;;;;;13.83;74.40;100054.63;5072946;28;45384;-68
2022/03/30 10:05:10;;;;;;;;;81.75;66.25;;;;;14.02;73.22;100032.25;5064910;28;45441;-67
2022/03/30 10:07:37;;;;;;;;;79.25;59.75;;;;;13.70;72.77;100045.38;5071655;28;45436;-67
2022/03/30 10:10:04;;;;;;;;;77.00;63.50;;;;;13.72;73.96;100048.78;5066540;28;45381;-68
2022/03/30 10:12:31;;;;;;;;;73.00;55.25;;;;;13.70;75.15;100043.50;5074979;27;45432;-68
2022/03/30 10:14:57;;;;;;;;;74.50;58.75;;;;;13.88;74.68;100034.97;5066480;28;45325;-66
2022/03/30 10:17:25;;;;;;;;;82.25;62.50;;;;;14.02;73.42;100034.97;5071777;28;45334;-67
2022/03/30 10:19:52;;;;;;;;;80.25;61.00;;;;;14.01;72.10;100024.22;5066043;27;45417;-68
2022/03/30 10:22:52;;;;;;;;;75.75;58.00;;;;;13.96;72.01;100030.25;5070269;28;45925;-69
2022/03/30 10:25:43;;;;;;;;;76.75;59.25;;;;;13.91;71.59;100020.91;5075221;28;46386;-68
2022/03/30 10:28:17;;;;;;;;;79.50;58.25;;;;;13.72;71.29;100032.41;5087054;27;45257;-67
2022/03/30 10:30:43;;;;;;;;;73.00;55.75;;;;;13.97;72.51;100026.47;5087393;27;45518;-68
2022/03/30 10:33:11;;;;;;;;;76.00;57.00;;;;;14.30;72.14;100026.09;5077039;27;45321;-68
2022/03/30 10:35:48;;;;;;;;;76.00;57.75;;;;;14.61;70.63;100031.38;5066233;28;45561;-67
2022/03/30 10:38:15;;;;;;;;;77.50;59.50;;;;;14.88;69.16;100024.31;5082637;27;45395;-68
2022/03/30 10:40:41;;;;;;;;;68.50;55.00;;;;;15.07;69.58;100026.41;5071516;28;45365;-68
2022/03/30 10:43:08;;;;;;;;;71.00;56.00;;;;;15.19;69.18;100019.38;5074662;28;45536;-69
2022/03/30 10:45:49;;;;;;;;;71.25;53.25;;;;;15.39;68.12;100012.19;5066352;28;46455;-69
2022/03/30 10:48:14;;;;;;;;;72.50;56.75;;;;;15.63;67.04;100008.22;5077962;28;45333;-68
2022/03/30 10:50:55;;;;;;;;;67.50;53.00;;;;;15.76;65.59;100008.31;5069715;28;45441;-68
2022/03/30 10:53:29;;;;;;;;;72.00;54.50;;;;;15.77;64.71;99999.06;5079289;27;45313;-68
2022/03/30 10:56:15;;;;;;;;;71.50;53.25;;;;;15.83;64.07;99992.75;5080933;28;47264;-68
2022/03/30 10:58:49;;;;;;;;;73.25;54.75;;;;;15.89;63.90;99991.09;5071295;28;45488;-69
2022/03/30 11:01:24;;;;;;;;;69.50;53.00;;;;;15.93;63.00;99992.38;5072921;28;45404;-69
2022/03/30 11:04:03;;;;;;;;;70.25;54.00;;;;;16.02;62.90;99982.97;5071768;28;45423;-69
2022/03/30 11:06:30;;;;;;;;;68.00;51.50;;;;;16.21;63.17;99990.47;5075279;28;45253;-68
2022/03/30 11:09:08;;;;;;;;;67.50;51.75;;;;;16.46;62.98;99977.06;5073077;28;45721;-68
2022/03/30 11:11:39;;;;;;;;;71.75;55.00;;;;;16.89;61.25;99983.13;5076948;28;45291;-68
2022/03/30 11:14:26;;;;;;;;;72.50;56.00;;;;;16.86;61.66;99983.56;5068254;28;45386;-67
2022/03/30 11:17:04;;;;;;;;;67.25;51.75;;;;;17.16;60.64;99977.69;5069521;28;46280;-69
2022/03/30 11:19:57;;;;;;;;;76.50;60.00;;;;;17.36;59.81;99984.03;5065463;28;45381;-69